sensor_id;sensor_type;location;lat;lon;timestamp;P1;durP1;ratioP1;P2;durP2;ratioP2
38264;SDS011;24062;47.480;8.768;2022-09-01T00:00:44;21.37;;;18.50;;
38264;SDS011;24062;47.480;8.768;2022-09-01T00:03:13;21.47;;;18.40;;
38264;SDS011;24062;47.480;8.768;2022-09-01T00:05:40;26.50;;;18.67;;
38264;SDS011;24062;47.480;8.768;2022-09-01T00:08:07;22.90;;;19.27;;
38264;SDS011;24062;47.480;8.768;2022-09-01T00:10:34;28.00;;;20.57;;
38264;SDS011;24062;47.480;8.768;2022-09-01T00:13:03;22.00;;;17.93;;
38264;SDS011;24062;47.480;8.768;2022-09-01T00:15:31;24.23;;;19.57;;
38264;SDS011;24062;47.480;8.768;2022-09-01T00:17:58;22.97;;;17.00;;
38264;SDS011;24062;47.480;8.768;2022-09-01T00:20:25;21.40;;;18.20;;
38264;SDS011;24062;47.480;8.768;2022-09-01T00:22:52;27.50;;;21.50;;
38264;SDS011;24062;47.480;8.768;2022-09-01T00:25:19;28.33;;;20.00;;
38264;SDS011;24062;47.480;8.768;2022-09-01T00:27:47;25.10;;;18.60;;
38264;SDS011;24062;47.480;8.768;2022-09-01T00:30:16;22.93;;;19.00;;
38264;SDS011;24062;47.480;8.768;2022-09-01T00:32:43;25.97;;;21.27;;
38264;SDS011;24062;47.480;8.768;2022-09-01T00:35:11;24.77;;;20.87;;
38264;SDS011;24062;47.480;8.768;2022-09-01T00:37:37;24.43;;;19.00;;
38264;SDS011;24062;47.480;8.768;2022-09-01T00:40:05;21.90;;;17.80;;
38264;SDS011;24062;47.480;8.768;2022-09-01T00:42:34;23.27;;;18.40;;
38264;SDS011;24062;47.480;8.768;2022-09-01T00:45:01;25.97;;;18.10;;
38264;SDS011;24062;47.480;8.768;2022-09-01T00:47:30;21.33;;;18.37;;
38264;SDS011;24062;47.480;8.768;2022-09-01T00:49:57;23.63;;;18.03;;
38264;SDS011;24062;47.480;8.768;2022-09-01T00:52:26;19.63;;;16.10;;
38264;SDS011;24062;47.480;8.768;2022-09-01T00:55:02;24.37;;;17.40;;
38264;SDS011;24062;47.480;8.768;2022-09-01T00:57:32;26.60;;;18.30;;
38264;SDS011;24062;47.480;8.768;2022-09-01T01:00:02;31.47;;;19.90;;
38264;SDS011;24062;47.480;8.768;2022-09-01T01:02:33;28.20;;;18.00;;
38264;SDS011;24062;47.480;8.768;2022-09-01T01:05:01;22.80;;;18.27;;
38264;SDS011;24062;47.480;8.768;2022-09-01T01:07:28;23.10;;;17.43;;
38264;SDS011;24062;47.480;8.768;2022-09-01T01:09:55;24.90;;;19.97;;
38264;SDS011;24062;47.480;8.768;2022-09-01T01:12:22;31.90;;;19.23;;
38264;SDS011;24062;47.480;8.768;2022-09-01T01:14:52;26.70;;;19.80;;
38264;SDS011;24062;47.480;8.768;2022-09-01T01:17:19;26.80;;;20.33;;
38264;SDS011;24062;47.480;8.768;2022-09-01T01:19:49;28.47;;;19.70;;
38264;SDS011;24062;47.480;8.768;2022-09-01T01:22:38;29.97;;;20.17;;
38264;SDS011;24062;47.480;8.768;2022-09-01T01:25:30;28.67;;;19.53;;
38264;SDS011;24062;47.480;8.768;2022-09-01T01:28:06;28.10;;;19.27;;
38264;SDS011;24062;47.480;8.768;2022-09-01T01:30:39;26.43;;;21.30;;
38264;SDS011;24062;47.480;8.768;2022-09-01T01:33:08;30.63;;;21.43;;
38264;SDS011;24062;47.480;8.768;2022-09-01T01:35:35;40.47;;;20.80;;
38264;SDS011;24062;47.480;8.768;2022-09-01T01:38:02;27.40;;;18.87;;
38264;SDS011;24062;47.480;8.768;2022-09-01T01:40:34;32.37;;;19.70;;
38264;SDS011;24062;47.480;8.768;2022-09-01T01:43:01;31.70;;;21.53;;
38264;SDS011;24062;47.480;8.768;2022-09-01T01:45:29;36.13;;;23.00;;
38264;SDS011;24062;47.480;8.768;2022-09-01T01:47:56;36.23;;;23.40;;
38264;SDS011;24062;47.480;8.768;2022-09-01T01:50:31;31.90;;;21.33;;
38264;SDS011;24062;47.480;8.768;2022-09-01T01:53:01;37.17;;;24.23;;
38264;SDS011;24062;47.480;8.768;2022-09-01T01:55:29;35.27;;;23.70;;
38264;SDS011;24062;47.480;8.768;2022-09-01T01:57:58;39.60;;;26.10;;
38264;SDS011;24062;47.480;8.768;2022-09-01T02:00:28;37.23;;;24.83;;
38264;SDS011;24062;47.480;8.768;2022-09-01T02:02:58;33.77;;;23.13;;
38264;SDS011;24062;47.480;8.768;2022-09-01T02:05:26;37.10;;;21.50;;
38264;SDS011;24062;47.480;8.768;2022-09-01T02:07:57;34.33;;;23.20;;
38264;SDS011;24062;47.480;8.768;2022-09-01T02:10:29;29.07;;;20.33;;
38264;SDS011;24062;47.480;8.768;2022-09-01T02:12:59;33.07;;;22.87;;
38264;SDS011;24062;47.480;8.768;2022-09-01T02:15:31;31.53;;;22.43;;
38264;SDS011;24062;47.480;8.768;2022-09-01T02:18:06;39.63;;;24.17;;
38264;SDS011;24062;47.480;8.768;2022-09-01T02:20:33;31.83;;;22.87;;
38264;SDS011;24062;47.480;8.768;2022-09-01T02:23:00;39.47;;;26.70;;
38264;SDS011;24062;47.480;8.768;2022-09-01T02:25:33;44.93;;;27.70;;
38264;SDS011;24062;47.480;8.768;2022-09-01T02:28:02;38.33;;;23.90;;
38264;SDS011;24062;47.480;8.768;2022-09-01T02:30:33;39.70;;;26.30;;
38264;SDS011;24062;47.480;8.768;2022-09-01T02:33:01;35.57;;;24.20;;
38264;SDS011;24062;47.480;8.768;2022-09-01T02:35:28;42.93;;;26.60;;
38264;SDS011;24062;47.480;8.768;2022-09-01T02:37:58;37.73;;;25.00;;
38264;SDS011;24062;47.480;8.768;2022-09-01T02:40:25;38.17;;;25.47;;
38264;SDS011;24062;47.480;8.768;2022-09-01T02:42:54;45.77;;;28.60;;
38264;SDS011;24062;47.480;8.768;2022-09-01T02:45:24;45.70;;;30.40;;
38264;SDS011;24062;47.480;8.768;2022-09-01T02:47:51;48.20;;;32.00;;
38264;SDS011;24062;47.480;8.768;2022-09-01T02:50:21;54.30;;;34.60;;
38264;SDS011;24062;47.480;8.768;2022-09-01T02:52:49;57.07;;;37.83;;
38264;SDS011;24062;47.480;8.768;2022-09-01T02:55:19;54.63;;;35.40;;
38264;SDS011;24062;47.480;8.768;2022-09-01T02:57:47;46.90;;;33.13;;
38264;SDS011;24062;47.480;8.768;2022-09-01T03:00:16;52.40;;;36.57;;
38264;SDS011;24062;47.480;8.768;2022-09-01T03:02:54;50.13;;;36.30;;
38264;SDS011;24062;47.480;8.768;2022-09-01T03:05:23;50.70;;;35.37;;
38264;SDS011;24062;47.480;8.768;2022-09-01T03:07:53;44.97;;;32.70;;
38264;SDS011;24062;47.480;8.768;2022-09-01T03:10:23;42.83;;;31.67;;
38264;SDS011;24062;47.480;8.768;2022-09-01T03:12:57;38.57;;;31.07;;
38264;SDS011;24062;47.480;8.768;2022-09-01T03:15:25;38.43;;;29.90;;
38264;SDS011;24062;47.480;8.768;2022-09-01T03:17:54;32.77;;;26.90;;
38264;SDS011;24062;47.480;8.768;2022-09-01T03:20:23;35.77;;;27.10;;
38264;SDS011;24062;47.480;8.768;2022-09-01T03:22:50;27.50;;;24.53;;
38264;SDS011;24062;47.480;8.768;2022-09-01T03:25:17;29.20;;;23.50;;
38264;SDS011;24062;47.480;8.768;2022-09-01T03:27:45;25.40;;;22.80;;
38264;SDS011;24062;47.480;8.768;2022-09-01T03:30:12;23.40;;;20.87;;
38264;SDS011;24062;47.480;8.768;2022-09-01T03:32:40;23.73;;;21.23;;
38264;SDS011;24062;47.480;8.768;2022-09-01T03:35:08;24.87;;;21.77;;
38264;SDS011;24062;47.480;8.768;2022-09-01T03:37:35;23.70;;;21.23;;
38264;SDS011;24062;47.480;8.768;2022-09-01T03:40:04;21.80;;;19.60;;
38264;SDS011;24062;47.480;8.768;2022-09-01T03:42:33;23.20;;;20.83;;
38264;SDS011;24062;47.480;8.768;2022-09-01T03:45:00;28.20;;;20.80;;
38264;SDS011;24062;47.480;8.768;2022-09-01T03:47:33;22.93;;;20.53;;
38264;SDS011;24062;47.480;8.768;2022-09-01T03:50:03;25.03;;;20.60;;
38264;SDS011;24062;47.480;8.768;2022-09-01T03:52:34;22.13;;;19.50;;
38264;SDS011;24062;47.480;8.768;2022-09-01T03:55:03;21.47;;;19.30;;
38264;SDS011;24062;47.480;8.768;2022-09-01T03:57:31;22.33;;;20.03;;
38264;SDS011;24062;47.480;8.768;2022-09-01T04:00:02;24.70;;;21.00;;
38264;SDS011;24062;47.480;8.768;2022-09-01T04:02:31;22.87;;;20.47;;
38264;SDS011;24062;47.480;8.768;2022-09-01T04:04:58;22.73;;;20.30;;
38264;SDS011;24062;47.480;8.768;2022-09-01T04:07:25;22.53;;;20.10;;
38264;SDS011;24062;47.480;8.768;2022-09-01T04:09:54;23.57;;;19.23;;
38264;SDS011;24062;47.480;8.768;2022-09-01T04:12:21;23.73;;;19.77;;
38264;SDS011;24062;47.480;8.768;2022-09-01T04:14:49;22.07;;;19.77;;
38264;SDS011;24062;47.480;8.768;2022-09-01T04:17:16;25.43;;;19.10;;
38264;SDS011;24062;47.480;8.768;2022-09-01T04:20:03;22.13;;;19.80;;
38264;SDS011;24062;47.480;8.768;2022-09-01T04:22:33;22.13;;;19.83;;
38264;SDS011;24062;47.480;8.768;2022-09-01T04:25:03;23.27;;;20.77;;
38264;SDS011;24062;47.480;8.768;2022-09-01T04:27:31;24.10;;;21.50;;
38264;SDS011;24062;47.480;8.768;2022-09-01T04:29:58;28.33;;;22.00;;
38264;SDS011;24062;47.480;8.768;2022-09-01T04:32:25;24.37;;;21.87;;
38264;SDS011;24062;47.480;8.768;2022-09-01T04:34:52;25.27;;;21.83;;
38264;SDS011;24062;47.480;8.768;2022-09-01T04:37:20;23.37;;;20.47;;
38264;SDS011;24062;47.480;8.768;2022-09-01T04:39:47;23.63;;;21.13;;
38264;SDS011;24062;47.480;8.768;2022-09-01T04:42:17;24.07;;;21.50;;
38264;SDS011;24062;47.480;8.768;2022-09-01T04:44:47;24.97;;;21.23;;
38264;SDS011;24062;47.480;8.768;2022-09-01T04:47:14;23.80;;;21.30;;
38264;SDS011;24062;47.480;8.768;2022-09-01T04:49:43;22.70;;;19.43;;
38264;SDS011;24062;47.480;8.768;2022-09-01T04:52:11;25.40;;;21.83;;
38264;SDS011;24062;47.480;8.768;2022-09-01T04:54:38;24.57;;;21.97;;
38264;SDS011;24062;47.480;8.768;2022-09-01T04:57:05;23.57;;;21.07;;
38264;SDS011;24062;47.480;8.768;2022-09-01T04:59:33;22.27;;;19.97;;
38264;SDS011;24062;47.480;8.768;2022-09-01T05:02:00;22.73;;;20.40;;
38264;SDS011;24062;47.480;8.768;2022-09-01T05:04:31;22.03;;;18.70;;
38264;SDS011;24062;47.480;8.768;2022-09-01T05:06:59;21.13;;;18.43;;
38264;SDS011;24062;47.480;8.768;2022-09-01T05:09:31;18.47;;;16.60;;
38264;SDS011;24062;47.480;8.768;2022-09-01T05:12:01;22.80;;;19.07;;
38264;SDS011;24062;47.480;8.768;2022-09-01T05:14:36;21.90;;;18.43;;
38264;SDS011;24062;47.480;8.768;2022-09-01T05:17:03;21.23;;;18.90;;
38264;SDS011;24062;47.480;8.768;2022-09-01T05:19:34;22.90;;;18.70;;
38264;SDS011;24062;47.480;8.768;2022-09-01T05:22:01;21.47;;;19.20;;
38264;SDS011;24062;47.480;8.768;2022-09-01T05:24:29;21.30;;;19.20;;
38264;SDS011;24062;47.480;8.768;2022-09-01T05:26:56;21.10;;;17.73;;
38264;SDS011;24062;47.480;8.768;2022-09-01T05:29:24;22.90;;;20.50;;
38264;SDS011;24062;47.480;8.768;2022-09-01T05:31:54;24.40;;;21.50;;
38264;SDS011;24062;47.480;8.768;2022-09-01T05:34:23;25.20;;;21.13;;
38264;SDS011;24062;47.480;8.768;2022-09-01T05:36:52;23.63;;;21.00;;
38264;SDS011;24062;47.480;8.768;2022-09-01T05:39:21;25.87;;;21.07;;
38264;SDS011;24062;47.480;8.768;2022-09-01T05:41:49;23.77;;;21.23;;
38264;SDS011;24062;47.480;8.768;2022-09-01T05:44:16;22.80;;;20.37;;
38264;SDS011;24062;47.480;8.768;2022-09-01T05:46:46;20.73;;;18.63;;
38264;SDS011;24062;47.480;8.768;2022-09-01T05:49:15;25.47;;;22.70;;
38264;SDS011;24062;47.480;8.768;2022-09-01T05:51:44;21.43;;;19.00;;
38264;SDS011;24062;47.480;8.768;2022-09-01T05:54:14;24.13;;;19.80;;
38264;SDS011;24062;47.480;8.768;2022-09-01T05:56:41;25.63;;;21.43;;
38264;SDS011;24062;47.480;8.768;2022-09-01T05:59:09;21.57;;;19.17;;
38264;SDS011;24062;47.480;8.768;2022-09-01T06:01:36;20.87;;;18.67;;
38264;SDS011;24062;47.480;8.768;2022-09-01T06:04:05;21.43;;;19.13;;
38264;SDS011;24062;47.480;8.768;2022-09-01T06:06:37;20.90;;;18.20;;
38264;SDS011;24062;47.480;8.768;2022-09-01T06:09:08;21.10;;;17.60;;
38264;SDS011;24062;47.480;8.768;2022-09-01T06:11:36;25.03;;;19.57;;
38264;SDS011;24062;47.480;8.768;2022-09-01T06:14:03;22.43;;;18.50;;
38264;SDS011;24062;47.480;8.768;2022-09-01T06:16:31;20.37;;;18.00;;
38264;SDS011;24062;47.480;8.768;2022-09-01T06:18:59;20.20;;;17.93;;
38264;SDS011;24062;47.480;8.768;2022-09-01T06:21:26;20.60;;;18.40;;
38264;SDS011;24062;47.480;8.768;2022-09-01T06:23:56;22.63;;;18.63;;
38264;SDS011;24062;47.480;8.768;2022-09-01T06:26:24;21.13;;;17.83;;
38264;SDS011;24062;47.480;8.768;2022-09-01T06:28:54;20.57;;;18.47;;
38264;SDS011;24062;47.480;8.768;2022-09-01T06:31:22;19.83;;;17.70;;
38264;SDS011;24062;47.480;8.768;2022-09-01T06:33:50;19.33;;;17.33;;
38264;SDS011;24062;47.480;8.768;2022-09-01T06:36:19;19.17;;;16.97;;
38264;SDS011;24062;47.480;8.768;2022-09-01T06:38:47;17.13;;;15.33;;
38264;SDS011;24062;47.480;8.768;2022-09-01T06:41:16;17.70;;;15.90;;
38264;SDS011;24062;47.480;8.768;2022-09-01T06:43:44;16.70;;;14.97;;
38264;SDS011;24062;47.480;8.768;2022-09-01T06:46:11;17.77;;;15.90;;
38264;SDS011;24062;47.480;8.768;2022-09-01T06:48:38;14.93;;;13.43;;
38264;SDS011;24062;47.480;8.768;2022-09-01T06:51:10;15.67;;;14.10;;
38264;SDS011;24062;47.480;8.768;2022-09-01T06:53:38;17.00;;;14.07;;
38264;SDS011;24062;47.480;8.768;2022-09-01T06:56:06;17.67;;;14.27;;
38264;SDS011;24062;47.480;8.768;2022-09-01T06:58:36;17.03;;;13.07;;
38264;SDS011;24062;47.480;8.768;2022-09-01T07:01:05;14.03;;;12.57;;
38264;SDS011;24062;47.480;8.768;2022-09-01T07:03:33;14.00;;;12.60;;
38264;SDS011;24062;47.480;8.768;2022-09-01T07:06:03;15.73;;;11.00;;
38264;SDS011;24062;47.480;8.768;2022-09-01T07:08:32;11.93;;;10.87;;
38264;SDS011;24062;47.480;8.768;2022-09-01T07:11:04;14.73;;;12.17;;
38264;SDS011;24062;47.480;8.768;2022-09-01T07:13:32;17.20;;;11.00;;
38264;SDS011;24062;47.480;8.768;2022-09-01T07:16:02;12.00;;;10.87;;
38264;SDS011;24062;47.480;8.768;2022-09-01T07:18:30;11.60;;;10.60;;
38264;SDS011;24062;47.480;8.768;2022-09-01T07:20:58;13.07;;;11.67;;
38264;SDS011;24062;47.480;8.768;2022-09-01T07:23:31;11.07;;;9.93;;
38264;SDS011;24062;47.480;8.768;2022-09-01T07:25:58;11.23;;;9.13;;
38264;SDS011;24062;47.480;8.768;2022-09-01T07:28:25;9.50;;;8.70;;
38264;SDS011;24062;47.480;8.768;2022-09-01T07:30:56;11.00;;;10.10;;
38264;SDS011;24062;47.480;8.768;2022-09-01T07:33:24;9.53;;;8.63;;
38264;SDS011;24062;47.480;8.768;2022-09-01T07:35:54;10.87;;;9.10;;
38264;SDS011;24062;47.480;8.768;2022-09-01T07:38:21;9.40;;;8.50;;
38264;SDS011;24062;47.480;8.768;2022-09-01T07:40:48;9.03;;;8.33;;
38264;SDS011;24062;47.480;8.768;2022-09-01T07:43:19;10.00;;;9.13;;
38264;SDS011;24062;47.480;8.768;2022-09-01T07:45:49;8.47;;;7.80;;
38264;SDS011;24062;47.480;8.768;2022-09-01T07:48:21;9.17;;;8.20;;
38264;SDS011;24062;47.480;8.768;2022-09-01T07:50:51;9.10;;;8.07;;
38264;SDS011;24062;47.480;8.768;2022-09-01T07:53:21;9.10;;;8.27;;
38264;SDS011;24062;47.480;8.768;2022-09-01T07:55:51;8.23;;;7.37;;
38264;SDS011;24062;47.480;8.768;2022-09-01T07:58:19;9.20;;;8.40;;
38264;SDS011;24062;47.480;8.768;2022-09-01T08:00:48;7.80;;;7.20;;
38264;SDS011;24062;47.480;8.768;2022-09-01T08:03:16;8.07;;;7.37;;
38264;SDS011;24062;47.480;8.768;2022-09-01T08:05:44;8.60;;;7.83;;
38264;SDS011;24062;47.480;8.768;2022-09-01T08:08:12;9.77;;;8.93;;
38264;SDS011;24062;47.480;8.768;2022-09-01T08:10:40;7.73;;;7.13;;
38264;SDS011;24062;47.480;8.768;2022-09-01T08:13:09;7.80;;;7.10;;
38264;SDS011;24062;47.480;8.768;2022-09-01T08:15:36;8.73;;;7.97;;
38264;SDS011;24062;47.480;8.768;2022-09-01T08:18:04;8.50;;;7.70;;
38264;SDS011;24062;47.480;8.768;2022-09-01T08:20:31;9.67;;;8.67;;
38264;SDS011;24062;47.480;8.768;2022-09-01T08:22:59;8.13;;;7.43;;
38264;SDS011;24062;47.480;8.768;2022-09-01T08:25:29;8.37;;;7.27;;
38264;SDS011;24062;47.480;8.768;2022-09-01T08:27:56;7.90;;;7.30;;
38264;SDS011;24062;47.480;8.768;2022-09-01T08:30:23;7.67;;;7.07;;
38264;SDS011;24062;47.480;8.768;2022-09-01T08:32:50;7.77;;;7.07;;
38264;SDS011;24062;47.480;8.768;2022-09-01T08:35:17;7.87;;;7.17;;
38264;SDS011;24062;47.480;8.768;2022-09-01T08:37:44;8.67;;;7.70;;
38264;SDS011;24062;47.480;8.768;2022-09-01T08:40:12;7.33;;;6.67;;
38264;SDS011;24062;47.480;8.768;2022-09-01T08:42:46;6.37;;;5.87;;
38264;SDS011;24062;47.480;8.768;2022-09-01T08:45:22;8.03;;;7.33;;
38264;SDS011;24062;47.480;8.768;2022-09-01T08:47:53;8.33;;;7.00;;
38264;SDS011;24062;47.480;8.768;2022-09-01T08:50:22;9.90;;;7.10;;
38264;SDS011;24062;47.480;8.768;2022-09-01T08:52:50;7.97;;;7.30;;
38264;SDS011;24062;47.480;8.768;2022-09-01T08:55:25;7.97;;;7.20;;
38264;SDS011;24062;47.480;8.768;2022-09-01T08:57:58;6.80;;;6.30;;
38264;SDS011;24062;47.480;8.768;2022-09-01T09:00:30;7.63;;;7.00;;
38264;SDS011;24062;47.480;8.768;2022-09-01T09:03:05;7.20;;;6.60;;
38264;SDS011;24062;47.480;8.768;2022-09-01T09:05:42;7.07;;;6.30;;
38264;SDS011;24062;47.480;8.768;2022-09-01T09:08:23;8.43;;;5.37;;
38264;SDS011;24062;47.480;8.768;2022-09-01T09:11:05;7.10;;;6.43;;
38264;SDS011;24062;47.480;8.768;2022-09-01T09:13:46;6.57;;;5.97;;
38264;SDS011;24062;47.480;8.768;2022-09-01T09:16:24;7.67;;;6.07;;
38264;SDS011;24062;47.480;8.768;2022-09-01T09:18:56;6.67;;;6.07;;
38264;SDS011;24062;47.480;8.768;2022-09-01T09:21:27;7.00;;;6.30;;
38264;SDS011;24062;47.480;8.768;2022-09-01T09:24:02;5.67;;;5.20;;
38264;SDS011;24062;47.480;8.768;2022-09-01T09:26:35;6.27;;;5.67;;
38264;SDS011;24062;47.480;8.768;2022-09-01T09:29:03;6.37;;;5.97;;
38264;SDS011;24062;47.480;8.768;2022-09-01T09:31:31;5.57;;;5.07;;
38264;SDS011;24062;47.480;8.768;2022-09-01T09:33:59;5.70;;;5.30;;
38264;SDS011;24062;47.480;8.768;2022-09-01T09:36:33;6.90;;;5.97;;
38264;SDS011;24062;47.480;8.768;2022-09-01T09:39:03;5.47;;;5.07;;
38264;SDS011;24062;47.480;8.768;2022-09-01T09:41:35;5.20;;;4.73;;
38264;SDS011;24062;47.480;8.768;2022-09-01T09:44:14;5.87;;;5.37;;
38264;SDS011;24062;47.480;8.768;2022-09-01T09:46:44;5.30;;;4.80;;
38264;SDS011;24062;47.480;8.768;2022-09-01T09:49:15;5.83;;;4.73;;
38264;SDS011;24062;47.480;8.768;2022-09-01T09:51:45;6.57;;;4.60;;
38264;SDS011;24062;47.480;8.768;2022-09-01T09:54:17;5.83;;;5.43;;
38264;SDS011;24062;47.480;8.768;2022-09-01T09:56:46;5.43;;;5.03;;
38264;SDS011;24062;47.480;8.768;2022-09-01T09:59:23;5.53;;;5.03;;
38264;SDS011;24062;47.480;8.768;2022-09-01T10:01:56;6.50;;;5.10;;
38264;SDS011;24062;47.480;8.768;2022-09-01T10:04:34;4.90;;;4.50;;
38264;SDS011;24062;47.480;8.768;2022-09-01T10:07:21;4.90;;;4.50;;
38264;SDS011;24062;47.480;8.768;2022-09-01T10:09:51;5.70;;;5.10;;
38264;SDS011;24062;47.480;8.768;2022-09-01T10:12:19;5.20;;;4.80;;
38264;SDS011;24062;47.480;8.768;2022-09-01T10:14:49;4.43;;;4.03;;
38264;SDS011;24062;47.480;8.768;2022-09-01T10:17:19;6.23;;;4.80;;
38264;SDS011;24062;47.480;8.768;2022-09-01T10:19:52;4.70;;;4.30;;
38264;SDS011;24062;47.480;8.768;2022-09-01T10:22:21;4.23;;;3.93;;
38264;SDS011;24062;47.480;8.768;2022-09-01T10:24:49;4.00;;;3.70;;
38264;SDS011;24062;47.480;8.768;2022-09-01T10:27:18;3.83;;;3.43;;
38264;SDS011;24062;47.480;8.768;2022-09-01T10:29:49;5.90;;;4.63;;
38264;SDS011;24062;47.480;8.768;2022-09-01T10:32:23;3.80;;;3.50;;
38264;SDS011;24062;47.480;8.768;2022-09-01T10:34:52;3.80;;;3.50;;
38264;SDS011;24062;47.480;8.768;2022-09-01T10:37:20;4.63;;;3.07;;
38264;SDS011;24062;47.480;8.768;2022-09-01T10:42:38;4.10;;;3.80;;
38264;SDS011;24062;47.480;8.768;2022-09-01T10:45:16;3.47;;;2.83;;
38264;SDS011;24062;47.480;8.768;2022-09-01T10:47:47;3.00;;;2.57;;
38264;SDS011;24062;47.480;8.768;2022-09-01T10:50:25;3.43;;;3.13;;
38264;SDS011;24062;47.480;8.768;2022-09-01T10:55:59;2.83;;;2.37;;
38264;SDS011;24062;47.480;8.768;2022-09-01T10:58:29;3.00;;;2.70;;
38264;SDS011;24062;47.480;8.768;2022-09-01T11:01:05;2.73;;;2.33;;
38264;SDS011;24062;47.480;8.768;2022-09-01T11:03:49;2.50;;;2.07;;
38264;SDS011;24062;47.480;8.768;2022-09-01T11:06:42;2.53;;;2.33;;
38264;SDS011;24062;47.480;8.768;2022-09-01T11:09:23;2.80;;;2.60;;
38264;SDS011;24062;47.480;8.768;2022-09-01T11:15:01;2.30;;;2.00;;
38264;SDS011;24062;47.480;8.768;2022-09-01T11:17:31;3.93;;;2.43;;
38264;SDS011;24062;47.480;8.768;2022-09-01T11:20:03;2.30;;;2.10;;
38264;SDS011;24062;47.480;8.768;2022-09-01T11:22:34;2.23;;;2.03;;
38264;SDS011;24062;47.480;8.768;2022-09-01T11:31:00;2.20;;;1.90;;
38264;SDS011;24062;47.480;8.768;2022-09-01T11:36:49;2.10;;;1.80;;
38264;SDS011;24062;47.480;8.768;2022-09-01T11:39:25;2.10;;;1.70;;
38264;SDS011;24062;47.480;8.768;2022-09-01T11:41:59;2.33;;;2.13;;
38264;SDS011;24062;47.480;8.768;2022-09-01T11:44:31;2.80;;;2.20;;
38264;SDS011;24062;47.480;8.768;2022-09-01T11:47:03;2.03;;;1.60;;
38264;SDS011;24062;47.480;8.768;2022-09-01T11:49:34;2.80;;;1.87;;
38264;SDS011;24062;47.480;8.768;2022-09-01T11:52:04;2.40;;;2.20;;
38264;SDS011;24062;47.480;8.768;2022-09-01T11:54:36;4.00;;;3.30;;
38264;SDS011;24062;47.480;8.768;2022-09-01T11:57:16;2.53;;;2.33;;
38264;SDS011;24062;47.480;8.768;2022-09-01T11:59:51;2.23;;;2.00;;
38264;SDS011;24062;47.480;8.768;2022-09-01T12:02:19;2.80;;;2.43;;
38264;SDS011;24062;47.480;8.768;2022-09-01T12:04:50;3.00;;;2.70;;
38264;SDS011;24062;47.480;8.768;2022-09-01T12:10:12;2.80;;;2.60;;
38264;SDS011;24062;47.480;8.768;2022-09-01T12:12:43;2.40;;;2.10;;
38264;SDS011;24062;47.480;8.768;2022-09-01T12:15:16;2.30;;;2.00;;
38264;SDS011;24062;47.480;8.768;2022-09-01T12:17:45;2.67;;;2.47;;
38264;SDS011;24062;47.480;8.768;2022-09-01T12:20:21;2.83;;;2.50;;
38264;SDS011;24062;47.480;8.768;2022-09-01T12:22:51;2.67;;;2.47;;
38264;SDS011;24062;47.480;8.768;2022-09-01T12:25:18;3.70;;;2.17;;
38264;SDS011;24062;47.480;8.768;2022-09-01T12:27:47;2.87;;;2.30;;
38264;SDS011;24062;47.480;8.768;2022-09-01T12:30:15;2.60;;;2.40;;
38264;SDS011;24062;47.480;8.768;2022-09-01T12:32:42;3.00;;;2.10;;
38264;SDS011;24062;47.480;8.768;2022-09-01T12:35:13;2.20;;;2.00;;
38264;SDS011;24062;47.480;8.768;2022-09-01T12:37:44;2.22;;;1.90;;
38264;SDS011;24062;47.480;8.768;2022-09-01T12:40:22;3.40;;;3.08;;
38264;SDS011;24062;47.480;8.768;2022-09-01T12:42:51;2.78;;;2.58;;
38264;SDS011;24062;47.480;8.768;2022-09-01T12:45:39;2.55;;;2.35;;
38264;SDS011;24062;47.480;8.768;2022-09-01T12:48:22;2.83;;;2.05;;
38264;SDS011;24062;47.480;8.768;2022-09-01T12:50:50;4.50;;;3.13;;
38264;SDS011;24062;47.480;8.768;2022-09-01T12:53:20;4.68;;;2.17;;
38264;SDS011;24062;47.480;8.768;2022-09-01T12:58:46;2.60;;;2.40;;
38264;SDS011;24062;47.480;8.768;2022-09-01T13:01:26;2.03;;;1.70;;
38264;SDS011;24062;47.480;8.768;2022-09-01T13:04:12;2.30;;;1.63;;
38264;SDS011;24062;47.480;8.768;2022-09-01T13:06:52;2.00;;;1.65;;
38264;SDS011;24062;47.480;8.768;2022-09-01T13:09:22;1.90;;;1.60;;
38264;SDS011;24062;47.480;8.768;2022-09-01T13:11:49;2.15;;;1.60;;
38264;SDS011;24062;47.480;8.768;2022-09-01T13:14:16;2.35;;;1.67;;
38264;SDS011;24062;47.480;8.768;2022-09-01T13:16:43;1.75;;;1.30;;
38264;SDS011;24062;47.480;8.768;2022-09-01T13:19:10;2.10;;;1.65;;
38264;SDS011;24062;47.480;8.768;2022-09-01T13:21:37;2.17;;;1.73;;
38264;SDS011;24062;47.480;8.768;2022-09-01T13:24:05;1.90;;;1.42;;
38264;SDS011;24062;47.480;8.768;2022-09-01T13:26:34;2.00;;;1.50;;
38264;SDS011;24062;47.480;8.768;2022-09-01T13:29:01;2.08;;;1.70;;
38264;SDS011;24062;47.480;8.768;2022-09-01T13:31:29;1.90;;;1.60;;
38264;SDS011;24062;47.480;8.768;2022-09-01T13:33:56;2.10;;;1.45;;
38264;SDS011;24062;47.480;8.768;2022-09-01T13:36:23;3.33;;;1.90;;
38264;SDS011;24062;47.480;8.768;2022-09-01T13:38:50;2.30;;;1.60;;
38264;SDS011;24062;47.480;8.768;2022-09-01T13:41:17;2.40;;;1.88;;
38264;SDS011;24062;47.480;8.768;2022-09-01T13:43:45;1.90;;;1.33;;
38264;SDS011;24062;47.480;8.768;2022-09-01T13:46:12;2.90;;;1.40;;
38264;SDS011;24062;47.480;8.768;2022-09-01T13:48:39;1.83;;;1.45;;
38264;SDS011;24062;47.480;8.768;2022-09-01T13:51:06;2.25;;;1.80;;
38264;SDS011;24062;47.480;8.768;2022-09-01T13:53:34;2.30;;;1.70;;
38264;SDS011;24062;47.480;8.768;2022-09-01T13:56:01;2.28;;;2.08;;
38264;SDS011;24062;47.480;8.768;2022-09-01T13:58:28;2.08;;;1.70;;
38264;SDS011;24062;47.480;8.768;2022-09-01T14:00:57;2.13;;;1.65;;
38264;SDS011;24062;47.480;8.768;2022-09-01T14:03:24;3.28;;;1.90;;
38264;SDS011;24062;47.480;8.768;2022-09-01T14:05:50;2.47;;;1.85;;
38264;SDS011;24062;47.480;8.768;2022-09-01T14:08:19;3.20;;;1.33;;
38264;SDS011;24062;47.480;8.768;2022-09-01T14:10:47;2.95;;;1.90;;
38264;SDS011;24062;47.480;8.768;2022-09-01T14:13:16;2.00;;;1.80;;
38264;SDS011;24062;47.480;8.768;2022-09-01T14:15:44;1.90;;;1.52;;
38264;SDS011;24062;47.480;8.768;2022-09-01T14:18:13;2.38;;;1.90;;
38264;SDS011;24062;47.480;8.768;2022-09-01T14:20:41;3.17;;;1.65;;
38264;SDS011;24062;47.480;8.768;2022-09-01T14:23:10;2.55;;;1.80;;
38264;SDS011;24062;47.480;8.768;2022-09-01T14:25:40;2.30;;;1.60;;
38264;SDS011;24062;47.480;8.768;2022-09-01T14:28:08;1.95;;;1.55;;
38264;SDS011;24062;47.480;8.768;2022-09-01T14:30:35;2.20;;;1.80;;
38264;SDS011;24062;47.480;8.768;2022-09-01T14:33:04;3.58;;;2.00;;
38264;SDS011;24062;47.480;8.768;2022-09-01T14:35:33;2.65;;;1.80;;
38264;SDS011;24062;47.480;8.768;2022-09-01T14:38:02;2.35;;;1.65;;
38264;SDS011;24062;47.480;8.768;2022-09-01T14:40:33;3.75;;;1.35;;
38264;SDS011;24062;47.480;8.768;2022-09-01T14:43:01;2.10;;;1.60;;
38264;SDS011;24062;47.480;8.768;2022-09-01T14:45:29;1.80;;;1.10;;
38264;SDS011;24062;47.480;8.768;2022-09-01T14:47:57;5.55;;;4.82;;
38264;SDS011;24062;47.480;8.768;2022-09-01T14:50:26;2.80;;;1.90;;
38264;SDS011;24062;47.480;8.768;2022-09-01T14:52:58;1.88;;;1.48;;
38264;SDS011;24062;47.480;8.768;2022-09-01T14:55:26;2.35;;;1.60;;
38264;SDS011;24062;47.480;8.768;2022-09-01T14:57:54;2.97;;;1.50;;
38264;SDS011;24062;47.480;8.768;2022-09-01T15:00:22;1.80;;;1.20;;
38264;SDS011;24062;47.480;8.768;2022-09-01T15:02:50;1.70;;;1.10;;
38264;SDS011;24062;47.480;8.768;2022-09-01T15:05:17;2.05;;;1.33;;
38264;SDS011;24062;47.480;8.768;2022-09-01T15:07:44;2.10;;;1.70;;
38264;SDS011;24062;47.480;8.768;2022-09-01T15:10:13;1.50;;;1.00;;
38264;SDS011;24062;47.480;8.768;2022-09-01T15:12:42;1.73;;;0.95;;